📊 Raw Sensor Data

Showing records 45076 to 45100 of 85,047 total

ID Distance (ft) Battery V Battery A Int Temp (°F) Int Humid (%) Ext Temp (°F) Solar V RSSI SNR Time Stamp
39984 15.5 3.93 -5 56 46 56 0.00 -69 8 05/07/2025 09:45 PM
39983 15.7 3.93 -5 56 46 57 0.00 -70 8 05/07/2025 09:30 PM
39982 15.8 3.93 -5 57 47 58 0.00 -69 8 05/07/2025 09:15 PM
39981 15.6 3.93 -5 58 48 59 0.00 -71 7 05/07/2025 09:00 PM
39980 -- 3.93 -5 59 50 59 0.10 -69 8 05/07/2025 08:45 PM
39979 -- 3.93 -5 60 51 60 0.00 -71 9 05/07/2025 08:30 PM
39978 15.7 3.93 -5 62 52 61 0.60 -70 8 05/07/2025 08:15 PM
39977 -- 3.91 -21 66 53 62 4.20 -69 8 05/07/2025 08:00 PM
39976 -- 4.01 0 70 52 66 4.50 -70 8 05/07/2025 07:45 PM
39975 -- 4.03 5 73 51 68 4.50 -69 8 05/07/2025 07:30 PM
39974 15.8 4.04 9 76 50 70 4.50 -71 8 05/07/2025 07:15 PM
39973 -- 4.06 0 79 49 72 4.50 -71 8 05/07/2025 07:00 PM
39972 15.9 4.10 11 79 49 74 4.50 -69 8 05/07/2025 06:45 PM
39971 15.8 3.98 0 81 49 73 5.10 -69 8 05/07/2025 06:30 PM
39970 15.8 3.99 0 82 48 74 5.10 -71 8 05/07/2025 06:15 PM
39969 15.9 3.99 0 83 48 74 5.10 -71 8 05/07/2025 06:00 PM
39968 15.8 3.99 0 86 46 80 5.10 -70 8 05/07/2025 05:30 PM
39967 15.8 3.99 0 86 46 78 5.10 -70 8 05/07/2025 05:15 PM
39966 15.9 3.99 0 86 46 78 5.10 -71 7 05/07/2025 05:00 PM
39965 15.9 3.99 0 88 45 76 5.10 -70 8 05/07/2025 04:45 PM
39964 15.9 3.98 0 88 45 76 5.10 -70 8 05/07/2025 04:30 PM
39963 15.9 3.99 0 89 44 81 5.10 -70 7 05/07/2025 04:15 PM
39962 15.9 3.98 0 89 43 80 5.10 -70 8 05/07/2025 04:00 PM
39961 16.0 3.98 0 89 43 81 5.10 -71 7 05/07/2025 03:45 PM
39960 15.9 3.98 0 89 42 77 5.10 -70 8 05/07/2025 03:30 PM